Pagrindinis puslapis
METAR-TAF:

METAR-TAF

Oro uostai :

Čanakalė, Turkija

platuma: 40-08N, ilguma: 026-24E, Aukštis: 3 m

Dabartinis oras

Ataskaita buvo paskelbta 1 valandą ir 1 minutes, ne 08:50 UTC
Vėjas 15 kt iš Šiaurės/Šiaurės Rytų
Temperatūra 16°C
Drėgmė 63%
Slėgis 1023 hPa
Matomumas 10 km arba daugiau
Išsisklaidę debesys ne aukštis 3000 ft
Išsisklaidę debesys ne aukštis 10000 ft

METAR: LTBH 270850Z 03015KT 9999 SCT030 SCT100 16/09 Q1023

Laikas: 12:51 (09:51 UTC)

Prognozė

Ataskaita buvo paskelbta 2 valandos ir 11 minutes, ne 07:40 UTC
Prognozė galioja nuo 27 metu 09 UTC su 27 metu 18 UTC
Vėjas 14 kt iš Šiaurės Rytų
Matomumas 10 km arba daugiau
Išsisklaidę debesys ne aukštis 3500 ft

TAF: LTBH 270740Z 2709/2718 04014KT 9999 SCT035

Orai ataskaitas ir orų prognozės (METAR, TAF).

turimą stotys yra geltonos ir raudonos taškus žemėlapyje.

Perkelti pele per norėdami pamatyti stoties vardą.

Tada spustelėkite, norėdami matyti oro stebėjimo ir prognozės.

Norėdami pakeisti žemėlapį: spustelėkite ant žalios mygtukų su juodo kryžiaus žemyn,; žalią mygtuką su brūkšneliu, jei norite nutolinti; arba žalių rodyklių gretimoms žemėlapius.


METAR-TAF: